createdAt,value
2023-03-24T00:00:00.230Z,20.60
2023-03-24T00:03:48.903Z,22.10
2023-03-24T00:07:16.362Z,21.00
2023-03-24T00:10:49.970Z,17.20
2023-03-24T00:17:41.499Z,17.30
2023-03-24T00:21:11.874Z,27.80
2023-03-24T00:24:39.027Z,25.50
2023-03-24T00:28:07.935Z,15.80
2023-03-24T00:31:40.553Z,18.20
2023-03-24T00:35:09.239Z,15.40
2023-03-24T00:38:36.513Z,16.70
2023-03-24T00:42:04.929Z,17.00
2023-03-24T00:45:34.927Z,20.40
2023-03-24T00:49:06.294Z,26.20
2023-03-24T00:52:34.429Z,27.90
2023-03-24T00:56:02.202Z,22.40
2023-03-24T00:59:29.868Z,21.80
2023-03-24T01:02:58.617Z,20.70
2023-03-24T01:06:25.433Z,25.50
2023-03-24T01:09:57.704Z,14.10
2023-03-24T01:13:26.216Z,20.70
2023-03-24T01:16:53.512Z,14.00
2023-03-24T01:20:20.765Z,13.90
2023-03-24T01:23:47.934Z,13.50
2023-03-24T01:27:14.710Z,13.00
2023-03-24T01:30:42.952Z,14.60
2023-03-24T01:34:09.789Z,12.30
2023-03-24T01:37:36.448Z,14.70
2023-03-24T01:41:03.091Z,22.80
2023-03-24T01:44:34.948Z,22.60
2023-03-24T01:48:02.050Z,16.10
2023-03-24T01:51:35.704Z,20.90
2023-03-24T01:55:08.233Z,19.20
2023-03-24T01:58:37.210Z,16.10
2023-03-24T02:02:28.893Z,19.80
2023-03-24T02:05:58.958Z,15.80
2023-03-24T02:09:25.595Z,17.40
2023-03-24T02:12:53.302Z,14.40
2023-03-24T02:16:34.894Z,16.60
2023-03-24T02:20:37.302Z,9.50
2023-03-24T02:24:37.013Z,15.30
2023-03-24T02:28:20.896Z,24.40
2023-03-24T02:32:11.065Z,11.10
2023-03-24T02:36:06.373Z,12.40
2023-03-24T02:39:53.274Z,10.70
2023-03-24T02:43:34.557Z,11.80
2023-03-24T02:47:06.820Z,21.10
2023-03-24T02:50:43.235Z,8.80
2023-03-24T02:54:15.489Z,12.60
2023-03-24T02:57:45.361Z,14.30
2023-03-24T03:01:20.864Z,13.80
2023-03-24T03:05:20.165Z,12.60
2023-03-24T03:08:49.341Z,18.30
2023-03-24T03:12:20.066Z,13.00
2023-03-24T03:15:51.380Z,15.60
2023-03-24T03:19:22.231Z,15.90
2023-03-24T03:22:52.641Z,18.60
2023-03-24T03:26:24.380Z,12.60
2023-03-24T03:29:55.285Z,14.60
2023-03-24T03:33:27.368Z,17.00
2023-03-24T03:37:01.145Z,19.40
2023-03-24T03:40:32.887Z,17.50
2023-03-24T03:44:05.664Z,16.80
2023-03-24T03:47:33.804Z,21.60
2023-03-24T03:51:12.843Z,20.50
2023-03-24T03:54:45.137Z,19.30
2023-03-24T03:58:12.660Z,18.40
2023-03-24T04:01:44.688Z,16.90
2023-03-24T04:05:31.949Z,18.90
2023-03-24T04:09:18.088Z,18.50
2023-03-24T04:13:08.409Z,20.80
2023-03-24T04:17:06.274Z,16.80
2023-03-24T04:20:48.245Z,17.60
2023-03-24T04:24:27.628Z,16.70
2023-03-24T04:28:02.433Z,18.40
2023-03-24T04:31:34.486Z,19.30
2023-03-24T04:35:07.310Z,18.30
2023-03-24T04:38:57.580Z,14.60
2023-03-24T04:42:38.722Z,20.70
2023-03-24T04:46:09.118Z,17.10
2023-03-24T04:50:01.385Z,19.60
2023-03-24T04:53:30.200Z,17.50
2023-03-24T04:56:59.366Z,16.90
2023-03-24T05:00:33.820Z,17.10
2023-03-24T05:04:01.411Z,16.70
2023-03-24T05:07:28.748Z,19.10
2023-03-24T05:10:58.969Z,17.30
2023-03-24T05:14:26.697Z,13.80
2023-03-24T05:17:53.986Z,20.90
2023-03-24T05:21:23.471Z,15.70
2023-03-24T05:24:50.472Z,17.80
2023-03-24T05:28:17.362Z,18.60
2023-03-24T05:31:45.398Z,17.40
2023-03-24T05:35:21.026Z,19.90
2023-03-24T05:38:49.236Z,19.20
2023-03-24T05:42:17.314Z,17.10
2023-03-24T05:45:45.455Z,19.30
2023-03-24T05:49:18.940Z,13.70
2023-03-24T05:52:48.678Z,17.30
2023-03-24T05:56:31.611Z,18.20
2023-03-24T06:00:01.190Z,14.60
2023-03-24T06:03:51.563Z,19.70
2023-03-24T06:07:19.324Z,23.00
2023-03-24T06:10:46.934Z,20.70
2023-03-24T06:14:13.895Z,15.90
2023-03-24T06:17:55.011Z,16.90
2023-03-24T06:21:32.563Z,20.70
2023-03-24T06:25:05.148Z,15.40
2023-03-24T06:28:34.712Z,17.80
2023-03-24T06:35:38.883Z,14.70
2023-03-24T06:39:09.666Z,19.20
2023-03-24T06:42:36.909Z,18.10
2023-03-24T06:46:03.856Z,15.80
2023-03-24T06:49:30.471Z,16.80
2023-03-24T06:52:57.052Z,16.20
2023-03-24T06:56:25.113Z,13.10
2023-03-24T06:59:55.827Z,14.40
2023-03-24T07:03:25.329Z,14.90
2023-03-24T07:07:57.082Z,13.30
2023-03-24T07:11:26.132Z,14.30
2023-03-24T07:14:56.082Z,15.10
2023-03-24T07:18:23.459Z,14.70
2023-03-24T07:21:56.609Z,14.90
2023-03-24T07:25:34.587Z,16.60
2023-03-24T07:29:24.419Z,16.30
2023-03-24T07:33:15.704Z,20.30
2023-03-24T07:36:44.794Z,26.60
2023-03-24T07:40:22.881Z,22.90
2023-03-24T07:43:50.297Z,16.10
2023-03-24T07:47:24.989Z,15.50
2023-03-24T07:50:53.630Z,14.80
2023-03-24T07:54:49.451Z,12.90
2023-03-24T07:58:34.056Z,18.90
2023-03-24T08:02:22.471Z,14.80
2023-03-24T08:06:22.026Z,11.80
2023-03-24T08:09:55.955Z,14.70
2023-03-24T08:13:22.800Z,14.20
2023-03-24T08:16:50.784Z,13.50
2023-03-24T08:20:19.501Z,19.80
2023-03-24T08:23:46.102Z,16.70
2023-03-24T08:27:13.115Z,15.80
2023-03-24T08:30:46.483Z,15.80
2023-03-24T08:34:14.449Z,14.70
2023-03-24T08:37:42.615Z,12.30
2023-03-24T08:41:10.094Z,13.20
2023-03-24T08:44:37.717Z,13.90
2023-03-24T08:48:07.273Z,11.20
2023-03-24T08:51:35.002Z,13.80
2023-03-24T08:55:02.470Z,18.00
2023-03-24T08:58:32.800Z,12.10
2023-03-24T09:01:59.257Z,13.60
2023-03-24T09:05:37.067Z,12.20
2023-03-24T09:09:10.208Z,13.00
2023-03-24T09:12:37.176Z,11.30
2023-03-24T09:16:05.107Z,10.40
2023-03-24T09:19:34.358Z,11.10
2023-03-24T09:23:01.728Z,11.90
2023-03-24T09:26:28.622Z,10.00
2023-03-24T09:29:55.740Z,8.30
2023-03-24T09:33:25.081Z,8.10
2023-03-24T09:36:52.319Z,7.50
2023-03-24T09:40:23.294Z,9.20
2023-03-24T09:43:58.429Z,6.90
2023-03-24T09:47:31.864Z,7.20
2023-03-24T09:51:02.536Z,9.00
2023-03-24T09:54:38.428Z,9.80
2023-03-24T09:58:09.433Z,7.30
2023-03-24T10:01:40.324Z,8.00
2023-03-24T10:05:16.762Z,6.90
2023-03-24T10:08:50.303Z,7.80
2023-03-24T10:12:31.418Z,6.50
2023-03-24T10:16:08.019Z,6.30
2023-03-24T10:19:45.585Z,5.50
2023-03-24T10:23:26.400Z,5.40
2023-03-24T10:27:03.779Z,5.10
2023-03-24T10:30:34.598Z,6.60
2023-03-24T10:34:02.487Z,10.40
2023-03-24T10:37:32.291Z,6.00
2023-03-24T10:41:00.054Z,8.00
2023-03-24T10:44:27.274Z,5.00
2023-03-24T10:47:55.080Z,4.30
2023-03-24T10:51:24.539Z,3.70
2023-03-24T10:54:59.551Z,4.90
2023-03-24T10:58:37.891Z,3.80
2023-03-24T11:02:17.761Z,5.60
2023-03-24T11:05:45.097Z,4.20
2023-03-24T11:09:18.931Z,7.30
2023-03-24T11:13:02.649Z,5.30
2023-03-24T11:16:37.216Z,8.80
2023-03-24T11:20:06.420Z,4.00
2023-03-24T11:23:36.115Z,4.90
2023-03-24T11:27:04.308Z,3.50
2023-03-24T11:30:35.892Z,6.80
2023-03-24T11:34:09.261Z,4.20
2023-03-24T11:41:06.137Z,7.10
2023-03-24T11:44:43.185Z,6.00
2023-03-24T11:48:21.201Z,7.40
2023-03-24T11:51:53.158Z,6.50
2023-03-24T11:55:25.761Z,4.60
2023-03-24T11:58:56.962Z,6.20
2023-03-24T12:02:39.343Z,7.40
2023-03-24T12:06:15.720Z,6.40
2023-03-24T12:09:48.660Z,4.70
2023-03-24T12:13:31.803Z,6.60
2023-03-24T12:17:06.718Z,8.10
2023-03-24T12:20:39.126Z,5.50
2023-03-24T12:24:17.611Z,6.40
2023-03-24T12:27:54.290Z,5.90
2023-03-24T12:31:42.063Z,7.80
2023-03-24T12:35:38.951Z,6.50
2023-03-24T12:39:13.161Z,7.00
2023-03-24T12:46:15.996Z,6.20
2023-03-24T12:50:05.899Z,5.70
2023-03-24T12:53:43.633Z,9.70
2023-03-24T12:57:15.735Z,6.70
2023-03-24T13:00:47.756Z,6.30
2023-03-24T13:04:21.249Z,6.50
2023-03-24T13:07:54.349Z,5.60
2023-03-24T13:11:33.250Z,8.20
2023-03-24T13:15:15.209Z,6.20
2023-03-24T13:18:45.381Z,9.40
2023-03-24T13:22:18.127Z,9.70
2023-03-24T13:25:52.945Z,9.20
2023-03-24T13:29:55.845Z,11.60
2023-03-24T13:33:26.799Z,9.00
2023-03-24T13:36:57.649Z,7.50
2023-03-24T13:40:28.073Z,7.20
2023-03-24T13:44:02.343Z,7.30
2023-03-24T13:47:32.052Z,5.70
2023-03-24T13:51:01.948Z,6.80
2023-03-24T13:54:30.993Z,6.30
2023-03-24T13:58:02.000Z,7.70
2023-03-24T14:01:41.100Z,5.40
2023-03-24T14:05:10.217Z,5.50
2023-03-24T14:08:56.083Z,13.10
2023-03-24T14:12:27.396Z,11.00
2023-03-24T14:15:56.725Z,8.00
2023-03-24T14:19:31.404Z,9.70
2023-03-24T14:22:58.606Z,9.30
2023-03-24T14:26:36.944Z,12.60
2023-03-24T14:30:13.679Z,7.00
2023-03-24T14:33:41.667Z,6.70
2023-03-24T14:37:11.367Z,8.90
2023-03-24T14:40:40.350Z,6.30
2023-03-24T14:44:10.491Z,6.50
2023-03-24T14:47:39.932Z,6.80
2023-03-24T14:51:18.286Z,6.40
2023-03-24T14:54:53.697Z,7.00
2023-03-24T14:58:28.271Z,4.20
2023-03-24T15:02:00.892Z,8.00
2023-03-24T15:05:32.230Z,5.40
2023-03-24T15:09:01.436Z,6.00
2023-03-24T15:12:28.531Z,5.10
2023-03-24T15:15:58.818Z,8.40
2023-03-24T15:19:28.991Z,5.00
2023-03-24T15:22:56.434Z,6.20
2023-03-24T15:26:24.704Z,5.70
2023-03-24T15:29:59.250Z,6.60
2023-03-24T15:33:31.280Z,7.00
2023-03-24T15:37:00.017Z,3.90
2023-03-24T15:40:39.316Z,5.80
2023-03-24T15:44:11.331Z,6.80
2023-03-24T15:47:43.287Z,5.20
2023-03-24T15:51:12.758Z,9.60
2023-03-24T15:54:43.126Z,6.40
2023-03-24T15:58:27.199Z,8.10
2023-03-24T16:01:54.555Z,8.90
2023-03-24T16:05:26.172Z,7.00
2023-03-24T16:08:52.782Z,7.00
2023-03-24T16:12:19.737Z,7.70
2023-03-24T16:15:49.867Z,8.70
2023-03-24T16:19:16.787Z,9.60
2023-03-24T16:22:43.891Z,8.30
2023-03-24T16:26:13.918Z,13.70
2023-03-24T16:29:40.899Z,12.00
2023-03-24T16:33:08.821Z,15.00
2023-03-24T16:36:36.439Z,19.10
2023-03-24T16:40:03.898Z,28.20
2023-03-24T16:43:33.570Z,22.60
2023-03-24T16:47:01.112Z,16.00
2023-03-24T16:50:33.695Z,14.60
2023-03-24T16:54:00.915Z,13.20
2023-03-24T16:57:28.049Z,10.00
2023-03-24T17:00:59.042Z,9.40
2023-03-24T17:04:27.695Z,10.00
2023-03-24T17:07:55.813Z,14.70
2023-03-24T17:11:30.599Z,11.60
2023-03-24T17:14:57.296Z,12.40
2023-03-24T17:18:25.075Z,6.80
2023-03-24T17:21:58.101Z,4.80
2023-03-24T17:25:29.480Z,5.10
2023-03-24T17:28:56.928Z,7.00
2023-03-24T17:32:29.925Z,7.00
2023-03-24T17:35:57.059Z,6.50
2023-03-24T17:39:24.948Z,9.40
2023-03-24T17:42:54.750Z,5.70
2023-03-24T17:46:22.566Z,14.60
2023-03-24T17:49:49.518Z,13.00
2023-03-24T17:53:17.783Z,8.40
2023-03-24T17:56:44.902Z,7.90
2023-03-24T18:00:15.162Z,6.60
2023-03-24T18:03:45.071Z,7.70
2023-03-24T18:07:12.213Z,9.80
2023-03-24T18:10:39.918Z,10.60
2023-03-24T18:14:09.412Z,8.00
2023-03-24T18:17:37.811Z,7.20
2023-03-24T18:21:05.169Z,6.10
2023-03-24T18:24:32.499Z,12.10
2023-03-24T18:27:59.089Z,12.10
2023-03-24T18:31:26.596Z,9.90
2023-03-24T18:34:55.290Z,7.10
2023-03-24T18:38:22.894Z,9.40
2023-03-24T18:41:53.655Z,13.40
2023-03-24T18:45:21.240Z,20.60
2023-03-24T18:48:49.246Z,16.20
2023-03-24T18:52:18.425Z,15.80
2023-03-24T18:55:51.992Z,9.90
2023-03-24T18:59:20.351Z,13.80
2023-03-24T19:02:49.246Z,22.80
2023-03-24T19:06:17.786Z,42.90
2023-03-24T19:09:46.223Z,37.20
2023-03-24T19:13:14.922Z,33.10
2023-03-24T19:16:42.032Z,39.40
2023-03-24T19:20:12.106Z,40.90
2023-03-24T19:23:41.989Z,34.60
2023-03-24T19:27:08.776Z,24.00
2023-03-24T19:30:38.824Z,16.70
2023-03-24T19:34:06.396Z,17.20
2023-03-24T19:37:34.649Z,16.50
2023-03-24T19:41:08.087Z,30.90
2023-03-24T19:44:35.043Z,25.60
2023-03-24T19:48:01.844Z,22.50
2023-03-24T19:51:29.934Z,21.20
2023-03-24T19:54:56.818Z,20.60
2023-03-24T19:58:25.400Z,18.90
2023-03-24T20:01:52.343Z,17.50
2023-03-24T20:05:19.634Z,14.90
2023-03-24T20:08:47.525Z,14.90
2023-03-24T20:12:14.278Z,17.20
2023-03-24T20:15:41.152Z,13.80
2023-03-24T20:19:08.221Z,12.90
2023-03-24T20:22:36.903Z,11.40
2023-03-24T20:26:04.348Z,14.30
2023-03-24T20:29:31.954Z,12.20
2023-03-24T20:32:59.901Z,15.60
2023-03-24T20:36:27.061Z,12.70
2023-03-24T20:39:55.289Z,13.60
2023-03-24T20:43:21.775Z,15.30
2023-03-24T20:46:49.244Z,17.90
2023-03-24T20:50:16.348Z,13.30
2023-03-24T20:53:45.121Z,16.80
2023-03-24T20:57:13.276Z,18.30
2023-03-24T21:00:42.232Z,19.90
2023-03-24T21:04:10.991Z,20.50
2023-03-24T21:07:44.098Z,19.30
2023-03-24T21:11:12.949Z,17.00
2023-03-24T21:14:41.650Z,15.40
2023-03-24T21:18:09.896Z,18.80
2023-03-24T21:21:38.429Z,17.60
2023-03-24T21:25:06.786Z,16.10
2023-03-24T21:28:34.328Z,19.80
2023-03-24T21:32:01.402Z,20.00
2023-03-24T21:35:29.004Z,18.50
2023-03-24T21:38:56.785Z,15.40
2023-03-24T21:42:30.977Z,15.10
2023-03-24T21:45:59.494Z,16.70
2023-03-24T21:49:30.487Z,15.50
2023-03-24T21:52:59.469Z,15.30
2023-03-24T21:56:33.127Z,16.00
2023-03-24T22:00:13.270Z,17.20
2023-03-24T22:03:40.866Z,19.30
2023-03-24T22:07:16.002Z,16.40
2023-03-24T22:10:46.385Z,20.40
2023-03-24T22:14:16.922Z,17.10
2023-03-24T22:17:45.423Z,16.00
2023-03-24T22:21:17.286Z,19.20
2023-03-24T22:24:44.911Z,21.10
2023-03-24T22:28:12.151Z,13.50
2023-03-24T22:31:43.908Z,13.60
2023-03-24T22:35:14.540Z,12.10
2023-03-24T22:38:53.632Z,17.00
2023-03-24T22:42:31.935Z,13.20
2023-03-24T22:46:20.351Z,11.30
2023-03-24T22:50:00.108Z,13.10
2023-03-24T22:53:28.232Z,13.00
2023-03-24T22:56:55.653Z,17.10
2023-03-24T23:00:31.065Z,16.40
2023-03-24T23:03:59.560Z,14.90
2023-03-24T23:07:33.682Z,17.80
2023-03-24T23:11:06.928Z,19.90
2023-03-24T23:14:34.769Z,22.90
2023-03-24T23:18:07.336Z,24.20
2023-03-24T23:21:35.626Z,28.70
2023-03-24T23:25:04.262Z,22.30
2023-03-24T23:28:32.513Z,23.20
2023-03-24T23:32:00.033Z,17.80
2023-03-24T23:35:26.980Z,19.30
2023-03-24T23:38:55.944Z,16.00
2023-03-24T23:42:25.582Z,14.80
2023-03-24T23:45:58.032Z,10.60
2023-03-24T23:49:25.098Z,10.40
2023-03-24T23:52:52.266Z,11.90
2023-03-24T23:56:22.244Z,12.30
2023-03-24T23:59:53.211Z,17.40
